Wayne B Smith — WDG2117 — position and weather

sailwx.info

Track history (hours):
 
Tides and Currents Weather Stations Pressure Air Temp Water Temp Dewpoint Dewpoint Depression Visibility Wind Speed Wind Dir Waves Ship Positions

Wayne B Smith

Owner: Hex Stone, Inc., Louisiana, MO. More information available from US FCC via Universal Licensing System and Coast Guard Vessel Documentation Center.

Last reported at 2017-Apr-09 00:23 UTC. Time now 2017-Nov-23 05:40 UTC.
Position N 38°52' W 090°33'.
Warning: this ship's position is months out of date.

Length 28 m.

Type: Tug. MMSI: 367512290.

Date/timePositionNaut miles runAvg speedWind from/ knotsBaromVisibWave heightAir tempDewpointWater temp
2017-Apr-09 00:23N 38°52' W 090°33'1 3.1
2017-Apr-09 00:00N 38°53' W 090°32'2 3.2
2017-Apr-08 23:30N 38°54' W 090°31'2 3.3
2017-Apr-08 22:56N 38°56' W 090°30'1 1.2
2017-Apr-08 22:30N 38°56' W 090°29'1 2.0
2017-Apr-08 22:00N 38°57' W 090°28'2 3.1
2017-Apr-08 21:30N 38°58' W 090°26'2 3.1
2017-Apr-08 21:00N 38°58' W 090°24'1 2.9
2017-Apr-08 20:30N 38°57' W 090°23'2 3.3
2017-Apr-08 20:00N 38°57' W 090°21'2 3.4
2017-Apr-08 19:29N 38°56' W 090°19'5 0.1
2017-Apr-06 19:26N 38°54' W 090°12'4 9.1
2017-Apr-06 19:00N 38°55' W 090°17'5 9.1
2017-Apr-06 18:30N 38°57' W 090°22'4 9.0
2017-Apr-06 18:00N 38°57' W 090°28'5 8.9
2017-Apr-06 17:26N 38°53' W 090°32'  
Track history (hours):
 
Tides and Currents Weather Stations Pressure Air Temp Water Temp Dewpoint Dewpoint Depression Visibility Wind Speed Wind Dir Waves Ship Positions

Wayne B Smith

Owner: Hex Stone, Inc., Louisiana, MO. More information available from US FCC via Universal Licensing System and Coast Guard Vessel Documentation Center.

Last reported at 2017-Apr-09 00:23 UTC. Time now 2017-Nov-23 05:40 UTC.
Position N 38°52' W 090°33'.
Warning: this ship's position is months out of date.

Length 28 m.

Type: Tug. MMSI: 367512290.

Date/timePositionNaut miles runAvg speedWind from/ knotsBaromVisibWave heightAir tempDewpointWater temp
2017-Apr-09 00:23N 38°52' W 090°33'1 3.1
2017-Apr-09 00:00N 38°53' W 090°32'2 3.2
2017-Apr-08 23:30N 38°54' W 090°31'2 3.3
2017-Apr-08 22:56N 38°56' W 090°30'1 1.2
2017-Apr-08 22:30N 38°56' W 090°29'1 2.0
2017-Apr-08 22:00N 38°57' W 090°28'2 3.1
2017-Apr-08 21:30N 38°58' W 090°26'2 3.1
2017-Apr-08 21:00N 38°58' W 090°24'1 2.9
2017-Apr-08 20:30N 38°57' W 090°23'2 3.3
2017-Apr-08 20:00N 38°57' W 090°21'2 3.4
2017-Apr-08 19:29N 38°56' W 090°19'5 0.1
2017-Apr-06 19:26N 38°54' W 090°12'4 9.1
2017-Apr-06 19:00N 38°55' W 090°17'5 9.1
2017-Apr-06 18:30N 38°57' W 090°22'4 9.0
2017-Apr-06 18:00N 38°57' W 090°28'5 8.9
2017-Apr-06 17:26N 38°53' W 090°32'  

Dump ship's entire track history